sensor_id;sensor_type;location;lat;lon;timestamp;pressure;altitude;pressure_sealevel;temperature;humidity
65227;BME280;51805;49.012;12.104;2023-04-26T00:02:08;97697.75;;;22.54;47.48
65227;BME280;51805;49.012;12.104;2023-04-26T00:04:33;97710.47;;;22.54;47.38
65227;BME280;51805;49.012;12.104;2023-04-26T00:06:58;97700.47;;;22.54;47.43
65227;BME280;51805;49.012;12.104;2023-04-26T00:09:24;97705.88;;;22.54;47.50
65227;BME280;51805;49.012;12.104;2023-04-26T00:11:49;97705.34;;;22.52;47.55
65227;BME280;51805;49.012;12.104;2023-04-26T00:14:14;97702.63;;;22.52;47.40
65227;BME280;51805;49.012;12.104;2023-04-26T00:16:40;97705.63;;;22.51;47.40
65227;BME280;51805;49.012;12.104;2023-04-26T00:19:05;97707.50;;;22.50;47.63
65227;BME280;51805;49.012;12.104;2023-04-26T00:21:30;97711.06;;;22.51;46.97
65227;BME280;51805;49.012;12.104;2023-04-26T00:23:56;97711.31;;;22.49;47.52
65227;BME280;51805;49.012;12.104;2023-04-26T00:26:21;97705.06;;;22.49;47.44
65227;BME280;51805;49.012;12.104;2023-04-26T00:28:46;97711.31;;;22.49;47.39
65227;BME280;51805;49.012;12.104;2023-04-26T00:31:15;97708.63;;;22.44;47.57
65227;BME280;51805;49.012;12.104;2023-04-26T00:33:41;97720.53;;;22.48;47.46
65227;BME280;51805;49.012;12.104;2023-04-26T00:36:06;97712.41;;;22.48;47.50
65227;BME280;51805;49.012;12.104;2023-04-26T00:38:32;97716.19;;;22.47;47.67
65227;BME280;51805;49.012;12.104;2023-04-26T00:40:57;97703.75;;;22.46;47.55
65227;BME280;51805;49.012;12.104;2023-04-26T00:43:22;97702.16;;;22.45;47.42
65227;BME280;51805;49.012;12.104;2023-04-26T00:45:48;97701.31;;;22.45;47.49
65227;BME280;51805;49.012;12.104;2023-04-26T00:48:14;97700.50;;;22.44;47.60
65227;BME280;51805;49.012;12.104;2023-04-26T00:50:40;97705.63;;;22.46;47.46
65227;BME280;51805;49.012;12.104;2023-04-26T00:53:05;97705.13;;;22.44;47.54
65227;BME280;51805;49.012;12.104;2023-04-26T00:55:32;97695.94;;;22.40;47.65
65227;BME280;51805;49.012;12.104;2023-04-26T00:57:58;97708.63;;;22.44;47.66
65227;BME280;51805;49.012;12.104;2023-04-26T01:00:23;97708.91;;;22.43;47.60
65227;BME280;51805;49.012;12.104;2023-04-26T01:02:48;97716.75;;;22.44;47.42
65227;BME280;51805;49.012;12.104;2023-04-26T01:05:14;97703.78;;;22.41;47.49
65227;BME280;51805;49.012;12.104;2023-04-26T01:07:39;97707.03;;;22.43;47.59
65227;BME280;51805;49.012;12.104;2023-04-26T01:10:05;97709.22;;;22.41;47.53
65227;BME280;51805;49.012;12.104;2023-04-26T01:12:31;97708.13;;;22.42;47.59
65227;BME280;51805;49.012;12.104;2023-04-26T01:14:58;97713.84;;;22.41;47.60
65227;BME280;51805;49.012;12.104;2023-04-26T01:17:24;97712.19;;;22.40;47.71
65227;BME280;51805;49.012;12.104;2023-04-26T01:19:49;97716.81;;;22.39;47.73
65227;BME280;51805;49.012;12.104;2023-04-26T01:22:14;97716.81;;;22.39;47.72
65227;BME280;51805;49.012;12.104;2023-04-26T01:24:41;97723.84;;;22.40;47.71
65227;BME280;51805;49.012;12.104;2023-04-26T01:27:08;97718.44;;;22.40;47.72
65227;BME280;51805;49.012;12.104;2023-04-26T01:29:34;97711.41;;;22.39;47.55
65227;BME280;51805;49.012;12.104;2023-04-26T01:31:59;97712.75;;;22.37;47.72
65227;BME280;51805;49.012;12.104;2023-04-26T01:34:25;97707.63;;;22.35;47.75
65227;BME280;51805;49.012;12.104;2023-04-26T01:36:50;97714.38;;;22.38;47.73
65227;BME280;51805;49.012;12.104;2023-04-26T01:39:15;97712.75;;;22.37;47.81
65227;BME280;51805;49.012;12.104;2023-04-26T01:41:40;97713.06;;;22.35;47.82
65227;BME280;51805;49.012;12.104;2023-04-26T01:44:06;97711.94;;;22.36;47.89
65227;BME280;51805;49.012;12.104;2023-04-26T01:46:31;97720.06;;;22.36;47.75
65227;BME280;51805;49.012;12.104;2023-04-26T01:48:56;97722.25;;;22.39;47.86
65227;BME280;51805;49.012;12.104;2023-04-26T01:51:22;97719.00;;;22.37;47.62
65227;BME280;51805;49.012;12.104;2023-04-26T01:53:47;97728.19;;;22.36;47.70
65227;BME280;51805;49.012;12.104;2023-04-26T01:56:12;97720.63;;;22.33;47.62
65227;BME280;51805;49.012;12.104;2023-04-26T01:58:38;97717.66;;;22.35;47.67
65227;BME280;51805;49.012;12.104;2023-04-26T02:01:07;97728.75;;;22.33;47.69
65227;BME280;51805;49.012;12.104;2023-04-26T02:03:34;97735.00;;;22.34;47.58
65227;BME280;51805;49.012;12.104;2023-04-26T02:05:59;97732.03;;;22.30;47.87
65227;BME280;51805;49.012;12.104;2023-04-26T02:08:24;97735.84;;;22.29;47.71
65227;BME280;51805;49.012;12.104;2023-04-26T02:10:50;97729.63;;;22.29;47.70
65227;BME280;51805;49.012;12.104;2023-04-26T02:13:15;97735.84;;;22.29;47.94
65227;BME280;51805;49.012;12.104;2023-04-26T02:15:44;97735.84;;;22.29;47.73
65227;BME280;51805;49.012;12.104;2023-04-26T02:18:10;97738.81;;;22.33;47.59
65227;BME280;51805;49.012;12.104;2023-04-26T02:20:35;97742.88;;;22.30;47.70
65227;BME280;51805;49.012;12.104;2023-04-26T02:23:00;97730.72;;;22.28;47.89
65227;BME280;51805;49.012;12.104;2023-04-26T02:25:25;97736.94;;;22.28;47.70
65227;BME280;51805;49.012;12.104;2023-04-26T02:27:51;97733.72;;;22.26;47.89
65227;BME280;51805;49.012;12.104;2023-04-26T02:30:16;97738.84;;;22.28;47.91
65227;BME280;51805;49.012;12.104;2023-04-26T02:32:41;97737.50;;;22.25;47.91
65227;BME280;51805;49.012;12.104;2023-04-26T02:35:07;97740.22;;;22.25;47.69
65227;BME280;51805;49.012;12.104;2023-04-26T02:37:32;97737.22;;;22.27;47.87
65227;BME280;51805;49.012;12.104;2023-04-26T02:39:58;97734.56;;;22.22;47.91
65227;BME280;51805;49.012;12.104;2023-04-26T02:42:24;97739.69;;;22.23;47.89
65227;BME280;51805;49.012;12.104;2023-04-26T02:44:49;97736.97;;;22.23;47.81
65227;BME280;51805;49.012;12.104;2023-04-26T02:47:14;97738.06;;;22.22;47.96
65227;BME280;51805;49.012;12.104;2023-04-26T02:49:40;97735.38;;;22.22;47.96
65227;BME280;51805;49.012;12.104;2023-04-26T02:52:05;97734.03;;;22.20;47.89
65227;BME280;51805;49.012;12.104;2023-04-26T02:54:30;97737.25;;;22.22;47.74
65227;BME280;51805;49.012;12.104;2023-04-26T02:56:55;97737.00;;;22.18;47.77
65227;BME280;51805;49.012;12.104;2023-04-26T02:59:21;97741.34;;;22.19;48.04
65227;BME280;51805;49.012;12.104;2023-04-26T03:01:46;97739.44;;;22.20;47.95
65227;BME280;51805;49.012;12.104;2023-04-26T03:04:11;97740.53;;;22.19;48.00
65227;BME280;51805;49.012;12.104;2023-04-26T03:06:37;97740.25;;;22.20;47.81
65227;BME280;51805;49.012;12.104;2023-04-26T03:09:02;97740.25;;;22.20;47.78
65227;BME280;51805;49.012;12.104;2023-04-26T03:11:28;97737.81;;;22.19;47.86
65227;BME280;51805;49.012;12.104;2023-04-26T03:13:53;97736.19;;;22.18;47.64
65227;BME280;51805;49.012;12.104;2023-04-26T03:16:19;97740.81;;;22.17;47.84
65227;BME280;51805;49.012;12.104;2023-04-26T03:18:44;97750.53;;;22.18;47.98
65227;BME280;51805;49.012;12.104;2023-04-26T03:21:09;97755.66;;;22.20;47.72
65227;BME280;51805;49.012;12.104;2023-04-26T03:23:34;97755.97;;;22.18;47.86
65227;BME280;51805;49.012;12.104;2023-04-26T03:26:00;97762.47;;;22.17;48.12
65227;BME280;51805;49.012;12.104;2023-04-26T03:28:25;97756.78;;;22.19;48.04
65227;BME280;51805;49.012;12.104;2023-04-26T03:30:50;97753.25;;;22.18;48.28
65227;BME280;51805;49.012;12.104;2023-04-26T03:33:16;97753.25;;;22.18;48.46
65227;BME280;51805;49.012;12.104;2023-04-26T03:35:42;97756.25;;;22.17;48.70
65227;BME280;51805;49.012;12.104;2023-04-26T03:38:07;97753.25;;;22.18;48.61
65227;BME280;51805;49.012;12.104;2023-04-26T03:40:33;97759.75;;;22.17;48.81
65227;BME280;51805;49.012;12.104;2023-04-26T03:42:58;97762.47;;;22.17;48.95
65227;BME280;51805;49.012;12.104;2023-04-26T03:45:23;97757.84;;;22.18;48.93
65227;BME280;51805;49.012;12.104;2023-04-26T03:47:49;97760.84;;;22.16;48.92
65227;BME280;51805;49.012;12.104;2023-04-26T03:50:14;97761.94;;;22.15;48.91
65227;BME280;51805;49.012;12.104;2023-04-26T03:52:39;97764.91;;;22.14;48.89
65227;BME280;51805;49.012;12.104;2023-04-26T03:55:05;97770.06;;;22.15;48.92
65227;BME280;51805;49.012;12.104;2023-04-26T03:57:30;97773.03;;;22.14;48.80
65227;BME280;51805;49.012;12.104;2023-04-26T03:59:56;97766.81;;;22.13;48.75
65227;BME280;51805;49.012;12.104;2023-04-26T04:02:21;97772.22;;;22.13;48.76
65227;BME280;51805;49.012;12.104;2023-04-26T04:04:46;97774.94;;;22.13;48.79
65227;BME280;51805;49.012;12.104;2023-04-26T04:07:11;97776.56;;;22.14;48.81
65227;BME280;51805;49.012;12.104;2023-04-26T04:09:37;97782.25;;;22.13;48.62
65227;BME280;51805;49.012;12.104;2023-04-26T04:12:02;97787.69;;;22.13;48.82
65227;BME280;51805;49.012;12.104;2023-04-26T04:14:27;97788.75;;;22.12;48.78
65227;BME280;51805;49.012;12.104;2023-04-26T04:16:53;97782.25;;;22.13;48.68
65227;BME280;51805;49.012;12.104;2023-04-26T04:19:18;97793.88;;;22.13;48.66
65227;BME280;51805;49.012;12.104;2023-04-26T04:21:43;97792.28;;;22.12;48.55
65227;BME280;51805;49.012;12.104;2023-04-26T04:24:09;97785.25;;;22.11;48.60
65227;BME280;51805;49.012;12.104;2023-04-26T04:26:34;97787.41;;;22.09;48.68
65227;BME280;51805;49.012;12.104;2023-04-26T04:28:59;97789.03;;;22.10;48.65
65227;BME280;51805;49.012;12.104;2023-04-26T04:31:24;97802.28;;;22.12;48.64
65227;BME280;51805;49.012;12.104;2023-04-26T04:33:50;97797.69;;;22.12;48.55
65227;BME280;51805;49.012;12.104;2023-04-26T04:36:15;97794.16;;;22.12;48.53
65227;BME280;51805;49.012;12.104;2023-04-26T04:38:40;97797.97;;;22.11;48.40
65227;BME280;51805;49.012;12.104;2023-04-26T04:41:05;97795.25;;;22.11;48.63
65227;BME280;51805;49.012;12.104;2023-04-26T04:43:31;97802.28;;;22.12;48.49
65227;BME280;51805;49.012;12.104;2023-04-26T04:45:56;97806.34;;;22.14;48.45
65227;BME280;51805;49.012;12.104;2023-04-26T04:48:21;97807.94;;;22.15;48.43
65227;BME280;51805;49.012;12.104;2023-04-26T04:50:48;97805.81;;;22.12;48.39
65227;BME280;51805;49.012;12.104;2023-04-26T04:53:13;97814.19;;;22.16;48.30
65227;BME280;51805;49.012;12.104;2023-04-26T04:55:38;97813.34;;;22.15;48.51
65227;BME280;51805;49.012;12.104;2023-04-26T04:58:04;97817.16;;;22.14;48.40
65227;BME280;51805;49.012;12.104;2023-04-26T05:00:29;97820.66;;;22.15;48.40
65227;BME280;51805;49.012;12.104;2023-04-26T05:02:55;97831.22;;;22.16;48.51
65227;BME280;51805;49.012;12.104;2023-04-26T05:05:20;97822.81;;;22.18;48.28
65227;BME280;51805;49.012;12.104;2023-04-26T05:07:45;97819.34;;;22.12;48.40
65227;BME280;51805;49.012;12.104;2023-04-26T05:10:11;97823.09;;;22.16;48.51
65227;BME280;51805;49.012;12.104;2023-04-26T05:12:36;97826.34;;;22.13;48.47
65227;BME280;51805;49.012;12.104;2023-04-26T05:15:02;97824.72;;;22.17;48.46
65227;BME280;51805;49.012;12.104;2023-04-26T05:17:27;97827.44;;;22.17;48.32
65227;BME280;51805;49.012;12.104;2023-04-26T05:19:52;97834.44;;;22.18;48.43
65227;BME280;51805;49.012;12.104;2023-04-26T05:22:18;97835.28;;;22.19;48.30
65227;BME280;51805;49.012;12.104;2023-04-26T05:24:46;97831.75;;;22.18;48.26
65227;BME280;51805;49.012;12.104;2023-04-26T05:27:12;97833.41;;;22.14;48.33
65227;BME280;51805;49.012;12.104;2023-04-26T05:29:37;97838.25;;;22.17;48.32
65227;BME280;51805;49.012;12.104;2023-04-26T05:32:03;97839.88;;;22.18;48.22
65227;BME280;51805;49.012;12.104;2023-04-26T05:34:28;97837.69;;;22.20;48.30
65227;BME280;51805;49.012;12.104;2023-04-26T05:36:53;97835.81;;;22.21;48.31
65227;BME280;51805;49.012;12.104;2023-04-26T05:39:19;97836.31;;;22.23;48.42
65227;BME280;51805;49.012;12.104;2023-04-26T05:41:44;97834.16;;;22.25;48.26
65227;BME280;51805;49.012;12.104;2023-04-26T05:44:09;97836.03;;;22.24;48.29
65227;BME280;51805;49.012;12.104;2023-04-26T05:46:34;97837.97;;;22.24;48.20
65227;BME280;51805;49.012;12.104;2023-04-26T05:49:00;97844.13;;;22.34;48.15
65227;BME280;51805;49.012;12.104;2023-04-26T05:51:25;97841.63;;;22.38;47.99
65227;BME280;51805;49.012;12.104;2023-04-26T05:53:50;97844.59;;;22.41;47.97
65227;BME280;51805;49.012;12.104;2023-04-26T05:56:16;97838.66;;;22.39;48.16
65227;BME280;51805;49.012;12.104;2023-04-26T05:58:41;97838.63;;;22.44;47.84
65227;BME280;51805;49.012;12.104;2023-04-26T06:01:06;97840.75;;;22.47;48.17
65227;BME280;51805;49.012;12.104;2023-04-26T06:03:32;97839.16;;;22.51;47.80
65227;BME280;51805;49.012;12.104;2023-04-26T06:05:58;97832.63;;;22.52;47.97
65227;BME280;51805;49.012;12.104;2023-04-26T06:08:23;97839.09;;;22.56;48.02
65227;BME280;51805;49.012;12.104;2023-04-26T06:10:48;97842.34;;;22.58;47.91
65227;BME280;51805;49.012;12.104;2023-04-26T06:13:14;97836.38;;;22.56;48.13
65227;BME280;51805;49.012;12.104;2023-04-26T06:15:40;97843.44;;;22.57;47.91
65227;BME280;51805;49.012;12.104;2023-04-26T06:18:05;97848.28;;;22.60;48.19
65227;BME280;51805;49.012;12.104;2023-04-26T06:20:31;97850.44;;;22.63;48.04
65227;BME280;51805;49.012;12.104;2023-04-26T06:22:57;97853.97;;;22.64;48.10
65227;BME280;51805;49.012;12.104;2023-04-26T06:25:22;97861.81;;;22.65;48.20
65227;BME280;51805;49.012;12.104;2023-04-26T06:27:47;97862.31;;;22.67;48.11
65227;BME280;51805;49.012;12.104;2023-04-26T06:30:13;97857.44;;;22.69;47.96
65227;BME280;51805;49.012;12.104;2023-04-26T06:32:40;97864.44;;;22.70;48.18
65227;BME280;51805;49.012;12.104;2023-04-26T06:35:05;97857.97;;;22.71;48.07
65227;BME280;51805;49.012;12.104;2023-04-26T06:37:30;97860.69;;;22.71;48.11
65227;BME280;51805;49.012;12.104;2023-04-26T06:39:56;97864.72;;;22.74;48.04
65227;BME280;51805;49.012;12.104;2023-04-26T06:42:21;97866.31;;;22.75;47.91
65227;BME280;51805;49.012;12.104;2023-04-26T06:44:46;97871.72;;;22.75;48.05
65227;BME280;51805;49.012;12.104;2023-04-26T06:47:12;97873.38;;;22.76;48.03
65227;BME280;51805;49.012;12.104;2023-04-26T06:49:37;97874.69;;;22.78;48.03
65227;BME280;51805;49.012;12.104;2023-04-26T06:52:02;97879.00;;;22.79;47.88
65227;BME280;51805;49.012;12.104;2023-04-26T06:54:28;97879.53;;;22.81;48.00
65227;BME280;51805;49.012;12.104;2023-04-26T06:56:54;97880.38;;;22.82;48.01
65227;BME280;51805;49.012;12.104;2023-04-26T06:59:19;97879.53;;;22.81;48.25
65227;BME280;51805;49.012;12.104;2023-04-26T07:01:44;97870.34;;;22.82;48.12
65227;BME280;51805;49.012;12.104;2023-04-26T07:04:10;97876.56;;;22.83;48.20
65227;BME280;51805;49.012;12.104;2023-04-26T07:06:36;97880.91;;;22.84;48.43
65227;BME280;51805;49.012;12.104;2023-04-26T07:09:02;97879.22;;;22.88;48.25
65227;BME280;51805;49.012;12.104;2023-04-26T07:11:27;97881.13;;;22.87;48.21
65227;BME280;51805;49.012;12.104;2023-04-26T07:13:53;97882.75;;;22.88;48.27
65227;BME280;51805;49.012;12.104;2023-04-26T07:16:18;97885.19;;;22.90;48.20
65227;BME280;51805;49.012;12.104;2023-04-26T07:18:43;97889.78;;;22.89;48.30
65227;BME280;51805;49.012;12.104;2023-04-26T07:21:09;97885.97;;;22.90;48.34
65227;BME280;51805;49.012;12.104;2023-04-26T07:23:34;97884.91;;;22.91;48.12
65227;BME280;51805;49.012;12.104;2023-04-26T07:26:00;97882.19;;;22.91;48.27
65227;BME280;51805;49.012;12.104;2023-04-26T07:28:25;97884.09;;;22.91;48.44
65227;BME280;51805;49.012;12.104;2023-04-26T07:30:50;97883.25;;;22.90;48.55
65227;BME280;51805;49.012;12.104;2023-04-26T07:33:16;97883.78;;;22.92;48.71
65227;BME280;51805;49.012;12.104;2023-04-26T07:35:42;97883.22;;;22.95;48.35
65227;BME280;51805;49.012;12.104;2023-04-26T07:38:10;97882.13;;;22.96;48.51
65227;BME280;51805;49.012;12.104;2023-04-26T07:40:38;97887.53;;;22.96;48.64
65227;BME280;51805;49.012;12.104;2023-04-26T07:43:07;97883.72;;;23.02;48.73
65227;BME280;51805;49.012;12.104;2023-04-26T07:45:33;97888.59;;;23.06;48.53
65227;BME280;51805;49.012;12.104;2023-04-26T07:47:58;97885.59;;;23.07;48.64
65227;BME280;51805;49.012;12.104;2023-04-26T07:50:24;97882.59;;;23.09;48.74
65227;BME280;51805;49.012;12.104;2023-04-26T07:52:49;97886.63;;;23.11;48.65
65227;BME280;51805;49.012;12.104;2023-04-26T07:55:14;97876.31;;;23.13;48.76
65227;BME280;51805;49.012;12.104;2023-04-26T07:57:40;97878.19;;;23.13;48.64
65227;BME280;51805;49.012;12.104;2023-04-26T08:00:06;97878.19;;;23.13;48.42
65227;BME280;51805;49.012;12.104;2023-04-26T08:02:31;97877.09;;;23.14;48.70
65227;BME280;51805;49.012;12.104;2023-04-26T08:04:57;97874.38;;;23.14;48.76
65227;BME280;51805;49.012;12.104;2023-04-26T08:07:22;97869.25;;;23.12;48.60
65227;BME280;51805;49.012;12.104;2023-04-26T08:09:47;97872.75;;;23.18;48.74
65227;BME280;51805;49.012;12.104;2023-04-26T08:12:12;97878.66;;;23.20;48.48
65227;BME280;51805;49.012;12.104;2023-04-26T08:14:38;97880.31;;;23.21;48.45
65227;BME280;51805;49.012;12.104;2023-04-26T08:17:04;97880.84;;;23.23;48.68
65227;BME280;51805;49.012;12.104;2023-04-26T08:19:30;97875.13;;;23.24;48.58
65227;BME280;51805;49.012;12.104;2023-04-26T08:21:55;97866.75;;;23.26;48.52
65227;BME280;51805;49.012;12.104;2023-04-26T08:24:20;97871.06;;;23.27;48.58
65227;BME280;51805;49.012;12.104;2023-04-26T08:26:46;97865.34;;;23.28;48.51
65227;BME280;51805;49.012;12.104;2023-04-26T08:29:11;97872.66;;;23.28;48.59
65227;BME280;51805;49.012;12.104;2023-04-26T08:31:36;97862.88;;;23.32;48.56
65227;BME280;51805;49.012;12.104;2023-04-26T08:34:02;97870.19;;;23.31;48.42
65227;BME280;51805;49.012;12.104;2023-04-26T08:36:27;97863.94;;;23.31;48.37
65227;BME280;51805;49.012;12.104;2023-04-26T08:38:52;97873.16;;;23.35;48.36
65227;BME280;51805;49.012;12.104;2023-04-26T08:41:21;97868.00;;;23.33;48.37
65227;BME280;51805;49.012;12.104;2023-04-26T08:43:47;97863.94;;;23.31;48.49
65227;BME280;51805;49.012;12.104;2023-04-26T08:46:14;97876.75;;;23.25;48.52
65227;BME280;51805;49.012;12.104;2023-04-26T08:48:43;97871.00;;;23.32;48.57
65227;BME280;51805;49.012;12.104;2023-04-26T08:51:11;97870.72;;;23.33;48.54
65227;BME280;51805;49.012;12.104;2023-04-26T08:53:38;97862.88;;;23.32;48.59
65227;BME280;51805;49.012;12.104;2023-04-26T08:56:05;97863.91;;;23.36;48.51
65227;BME280;51805;49.012;12.104;2023-04-26T08:58:32;97860.63;;;23.39;48.45
65227;BME280;51805;49.012;12.104;2023-04-26T09:00:57;97867.94;;;23.38;48.54
65227;BME280;51805;49.012;12.104;2023-04-26T09:03:24;97853.06;;;23.36;48.68
65227;BME280;51805;49.012;12.104;2023-04-26T09:05:49;97864.94;;;23.40;48.70
65227;BME280;51805;49.012;12.104;2023-04-26T09:08:15;97855.78;;;23.36;48.67
65227;BME280;51805;49.012;12.104;2023-04-26T09:10:41;97854.97;;;23.35;48.81
65227;BME280;51805;49.012;12.104;2023-04-26T09:13:06;97861.19;;;23.36;48.77
65227;BME280;51805;49.012;12.104;2023-04-26T09:15:31;97863.91;;;23.36;48.65
65227;BME280;51805;49.012;12.104;2023-04-26T09:18:15;97859.31;;;23.36;48.72
65227;BME280;51805;49.012;12.104;2023-04-26T09:20:40;97858.50;;;23.36;48.73
65227;BME280;51805;49.012;12.104;2023-04-26T09:23:07;97848.75;;;23.35;48.70
65227;BME280;51805;49.012;12.104;2023-04-26T09:25:33;97851.75;;;23.33;48.80
65227;BME280;51805;49.012;12.104;2023-04-26T09:27:59;97854.75;;;23.32;49.02
65227;BME280;51805;49.012;12.104;2023-04-26T09:30:25;97853.34;;;23.34;48.79
65227;BME280;51805;49.012;12.104;2023-04-26T09:32:59;97851.97;;;23.37;48.86
65227;BME280;51805;49.012;12.104;2023-04-26T09:35:27;97849.78;;;23.39;48.87
65227;BME280;51805;49.012;12.104;2023-04-26T09:38:08;97848.97;;;23.38;48.90
65227;BME280;51805;49.012;12.104;2023-04-26T09:40:42;97849.25;;;23.37;48.92
65227;BME280;51805;49.012;12.104;2023-04-26T09:43:18;97846.25;;;23.38;48.75
65227;BME280;51805;49.012;12.104;2023-04-26T09:45:54;97852.19;;;23.40;48.91
65227;BME280;51805;49.012;12.104;2023-04-26T09:48:28;97842.97;;;23.41;48.78
65227;BME280;51805;49.012;12.104;2023-04-26T09:50:55;97844.34;;;23.39;48.74
65227;BME280;51805;49.012;12.104;2023-04-26T09:53:46;97856.25;;;23.43;48.85
65227;BME280;51805;49.012;12.104;2023-04-26T09:56:16;97847.59;;;23.41;48.95
65227;BME280;51805;49.012;12.104;2023-04-26T09:58:57;97849.19;;;23.42;48.92
65227;BME280;51805;49.012;12.104;2023-04-26T10:01:24;97853.03;;;23.41;48.99
65227;BME280;51805;49.012;12.104;2023-04-26T10:03:49;97842.16;;;23.41;49.06
65227;BME280;51805;49.012;12.104;2023-04-26T10:06:15;97849.72;;;23.44;49.04
65227;BME280;51805;49.012;12.104;2023-04-26T10:08:42;97850.84;;;23.43;49.12
65227;BME280;51805;49.012;12.104;2023-04-26T10:11:08;97853.56;;;23.43;49.02
65227;BME280;51805;49.012;12.104;2023-04-26T10:13:34;97861.69;;;23.43;49.04
65227;BME280;51805;49.012;12.104;2023-04-26T10:16:00;97845.16;;;23.39;49.10
65227;BME280;51805;49.012;12.104;2023-04-26T10:18:25;97842.69;;;23.43;49.17
65227;BME280;51805;49.012;12.104;2023-04-26T10:20:52;97843.19;;;23.45;49.14
65227;BME280;51805;49.012;12.104;2023-04-26T10:23:21;97845.91;;;23.45;49.11
65227;BME280;51805;49.012;12.104;2023-04-26T10:25:47;97836.69;;;23.46;48.94
65227;BME280;51805;49.012;12.104;2023-04-26T10:28:12;97842.63;;;23.48;49.03
65227;BME280;51805;49.012;12.104;2023-04-26T10:30:54;97837.19;;;23.48;49.16
65227;BME280;51805;49.012;12.104;2023-04-26T10:33:20;97845.03;;;23.49;49.18
65227;BME280;51805;49.012;12.104;2023-04-26T10:36:33;97833.41;;;23.49;49.15
65227;BME280;51805;49.012;12.104;2023-04-26T10:39:17;97848.88;;;23.48;49.16
65227;BME280;51805;49.012;12.104;2023-04-26T10:41:43;97828.78;;;23.49;49.27
65227;BME280;51805;49.012;12.104;2023-04-26T10:46:58;97835.59;;;23.47;49.42
65227;BME280;51805;49.012;12.104;2023-04-26T10:49:23;97831.19;;;23.51;49.24
65227;BME280;51805;49.012;12.104;2023-04-26T10:52:10;97828.19;;;23.52;49.37
65227;BME280;51805;49.012;12.104;2023-04-26T10:54:55;97813.31;;;23.50;49.52
65227;BME280;51805;49.012;12.104;2023-04-26T10:57:22;97828.47;;;23.51;49.55
65227;BME280;51805;49.012;12.104;2023-04-26T11:05:37;97817.34;;;23.52;49.66
65227;BME280;51805;49.012;12.104;2023-04-26T11:10:38;97811.91;;;23.52;49.62
65227;BME280;51805;49.012;12.104;2023-04-26T11:13:04;97810.59;;;23.50;49.76
65227;BME280;51805;49.012;12.104;2023-04-26T11:15:30;97810.91;;;23.48;49.74
65227;BME280;51805;49.012;12.104;2023-04-26T11:17:55;97807.66;;;23.46;49.72
65227;BME280;51805;49.012;12.104;2023-04-26T11:20:21;97805.75;;;23.47;49.51
65227;BME280;51805;49.012;12.104;2023-04-26T11:22:46;97805.47;;;23.48;49.21
65227;BME280;51805;49.012;12.104;2023-04-26T11:25:12;97791.38;;;23.46;49.32
65227;BME280;51805;49.012;12.104;2023-04-26T11:27:38;97798.44;;;23.47;49.32
65227;BME280;51805;49.012;12.104;2023-04-26T11:30:04;97799.22;;;23.48;49.25
65227;BME280;51805;49.012;12.104;2023-04-26T11:32:29;97801.66;;;23.49;49.21
65227;BME280;51805;49.012;12.104;2023-04-26T11:34:59;97807.88;;;23.50;49.23
65227;BME280;51805;49.012;12.104;2023-04-26T11:37:24;97807.88;;;23.50;49.29
65227;BME280;51805;49.012;12.104;2023-04-26T11:39:50;97803.00;;;23.52;49.26
65227;BME280;51805;49.012;12.104;2023-04-26T11:42:15;97800.78;;;23.54;49.16
65227;BME280;51805;49.012;12.104;2023-04-26T11:44:40;97816.75;;;23.55;49.35
65227;BME280;51805;49.012;12.104;2023-04-26T11:47:06;97794.84;;;23.52;49.21
65227;BME280;51805;49.012;12.104;2023-04-26T11:49:32;97800.50;;;23.55;49.21
65227;BME280;51805;49.012;12.104;2023-04-26T11:51:59;97791.56;;;23.55;49.25
65227;BME280;51805;49.012;12.104;2023-04-26T11:54:35;97804.03;;;23.56;49.37
65227;BME280;51805;49.012;12.104;2023-04-26T11:57:12;97800.19;;;23.57;49.31
65227;BME280;51805;49.012;12.104;2023-04-26T11:59:37;97798.31;;;23.57;49.29
65227;BME280;51805;49.012;12.104;2023-04-26T12:02:06;97795.88;;;23.56;49.16
65227;BME280;51805;49.012;12.104;2023-04-26T12:04:31;97802.31;;;23.60;49.25
65227;BME280;51805;49.012;12.104;2023-04-26T12:06:57;97796.91;;;23.60;49.41
65227;BME280;51805;49.012;12.104;2023-04-26T12:09:23;97776.84;;;23.61;49.41
65227;BME280;51805;49.012;12.104;2023-04-26T12:12:02;97797.44;;;23.62;49.42
65227;BME280;51805;49.012;12.104;2023-04-26T12:14:35;97799.06;;;23.63;49.48
65227;BME280;51805;49.012;12.104;2023-04-26T12:17:02;97805.00;;;23.65;49.48
65227;BME280;51805;49.012;12.104;2023-04-26T12:19:34;97798.78;;;23.64;49.60
65227;BME280;51805;49.012;12.104;2023-04-26T12:22:00;97797.97;;;23.64;49.61
65227;BME280;51805;49.012;12.104;2023-04-26T12:24:27;97797.97;;;23.64;49.71
65227;BME280;51805;49.012;12.104;2023-04-26T12:26:52;97797.97;;;23.64;49.87
65227;BME280;51805;49.012;12.104;2023-04-26T12:29:18;97799.06;;;23.63;49.90
65227;BME280;51805;49.012;12.104;2023-04-26T12:31:43;97795.25;;;23.64;50.04
65227;BME280;51805;49.012;12.104;2023-04-26T12:34:09;97791.13;;;23.66;49.96
65227;BME280;51805;49.012;12.104;2023-04-26T12:36:34;97787.63;;;23.66;49.88
65227;BME280;51805;49.012;12.104;2023-04-26T12:38:59;97784.63;;;23.67;49.88
65227;BME280;51805;49.012;12.104;2023-04-26T12:41:25;97783.53;;;23.68;49.98
65227;BME280;51805;49.012;12.104;2023-04-26T12:43:50;97785.13;;;23.69;49.95
65227;BME280;51805;49.012;12.104;2023-04-26T12:46:15;97785.66;;;23.71;49.91
65227;BME280;51805;49.012;12.104;2023-04-26T12:48:41;97779.94;;;23.73;49.96
65227;BME280;51805;49.012;12.104;2023-04-26T12:51:06;97788.59;;;23.75;50.13
65227;BME280;51805;49.012;12.104;2023-04-26T12:53:32;97777.44;;;23.76;49.97
65227;BME280;51805;49.012;12.104;2023-04-26T12:55:57;97770.91;;;23.77;50.12
65227;BME280;51805;49.012;12.104;2023-04-26T12:58:22;97776.03;;;23.79;50.35